sensor_id;sensor_type;location;lat;lon;timestamp;pressure;altitude;pressure_sealevel;temperature;humidity
8416;BME280;4245;42.120;24.732;2023-04-08T00:01:21;99512.81;;;9.30;65.36
8416;BME280;4245;42.120;24.732;2023-04-08T00:03:48;99504.78;;;9.32;66.10
8416;BME280;4245;42.120;24.732;2023-04-08T00:06:15;99512.16;;;9.41;66.64
8416;BME280;4245;42.120;24.732;2023-04-08T00:08:43;99521.63;;;9.45;66.79
8416;BME280;4245;42.120;24.732;2023-04-08T00:11:10;99517.16;;;9.59;65.80
8416;BME280;4245;42.120;24.732;2023-04-08T00:13:37;99510.84;;;9.62;65.74
8416;BME280;4245;42.120;24.732;2023-04-08T00:16:04;99513.50;;;9.62;65.98
8416;BME280;4245;42.120;24.732;2023-04-08T00:18:32;99515.09;;;9.65;65.34
8416;BME280;4245;42.120;24.732;2023-04-08T00:20:59;99521.72;;;9.57;65.47
8416;BME280;4245;42.120;24.732;2023-04-08T00:23:26;99512.91;;;9.57;65.25
8416;BME280;4245;42.120;24.732;2023-04-08T00:25:54;99527.03;;;9.57;65.61
8416;BME280;4245;42.120;24.732;2023-04-08T00:28:21;99524.66;;;9.53;66.02
8416;BME280;4245;42.120;24.732;2023-04-08T00:30:48;99514.44;;;9.47;66.86
8416;BME280;4245;42.120;24.732;2023-04-08T00:33:16;99526.75;;;9.48;66.99
8416;BME280;4245;42.120;24.732;2023-04-08T00:35:43;99523.63;;;9.41;67.69
8416;BME280;4245;42.120;24.732;2023-04-08T00:38:10;99521.91;;;9.40;67.95
8416;BME280;4245;42.120;24.732;2023-04-08T00:40:37;99524.47;;;9.42;68.18
8416;BME280;4245;42.120;24.732;2023-04-08T00:43:05;99521.34;;;9.35;68.71
8416;BME280;4245;42.120;24.732;2023-04-08T00:45:33;99524.56;;;9.40;68.83
8416;BME280;4245;42.120;24.732;2023-04-08T00:48:00;99518.69;;;9.49;68.70
8416;BME280;4245;42.120;24.732;2023-04-08T00:50:27;99527.13;;;9.42;69.15
8416;BME280;4245;42.120;24.732;2023-04-08T00:52:54;99529.19;;;9.37;70.51
8416;BME280;4245;42.120;24.732;2023-04-08T00:55:21;99534.59;;;9.35;71.48
8416;BME280;4245;42.120;24.732;2023-04-08T00:57:48;99542.75;;;9.32;72.74
8416;BME280;4245;42.120;24.732;2023-04-08T01:00:17;99538.47;;;9.30;74.42
8416;BME280;4245;42.120;24.732;2023-04-08T01:02:47;99541.09;;;9.30;76.09
8416;BME280;4245;42.120;24.732;2023-04-08T01:05:22;99546.16;;;9.34;77.25
8416;BME280;4245;42.120;24.732;2023-04-08T01:07:50;99556.00;;;9.32;80.10
8416;BME280;4245;42.120;24.732;2023-04-08T01:10:21;99543.59;;;9.33;82.28
8416;BME280;4245;42.120;24.732;2023-04-08T01:12:51;99542.94;;;9.29;83.66
8416;BME280;4245;42.120;24.732;2023-04-08T01:15:21;99551.47;;;9.34;84.08
8416;BME280;4245;42.120;24.732;2023-04-08T01:17:52;99549.06;;;9.30;85.11
8416;BME280;4245;42.120;24.732;2023-04-08T01:20:22;99553.03;;;9.23;87.14
8416;BME280;4245;42.120;24.732;2023-04-08T01:23:01;99553.03;;;9.23;87.56
8416;BME280;4245;42.120;24.732;2023-04-08T01:25:31;99550.59;;;9.20;88.75
8416;BME280;4245;42.120;24.732;2023-04-08T01:28:02;99551.41;;;9.20;88.93
8416;BME280;4245;42.120;24.732;2023-04-08T01:30:31;99546.66;;;9.11;91.09
8416;BME280;4245;42.120;24.732;2023-04-08T01:33:01;99547.25;;;9.16;91.39
8416;BME280;4245;42.120;24.732;2023-04-08T01:35:29;99542.72;;;9.18;92.67
8416;BME280;4245;42.120;24.732;2023-04-08T01:37:57;99547.38;;;9.14;93.37
8416;BME280;4245;42.120;24.732;2023-04-08T01:40:25;99545.94;;;9.23;93.30
8416;BME280;4245;42.120;24.732;2023-04-08T01:42:54;99550.19;;;9.11;95.12
8416;BME280;4245;42.120;24.732;2023-04-08T01:45:23;99546.59;;;9.12;95.64
8416;BME280;4245;42.120;24.732;2023-04-08T01:47:51;99553.31;;;9.04;96.88
8416;BME280;4245;42.120;24.732;2023-04-08T01:50:19;99555.31;;;9.14;97.64
8416;BME280;4245;42.120;24.732;2023-04-08T01:52:48;99555.75;;;9.07;98.86
8416;BME280;4245;42.120;24.732;2023-04-08T01:55:18;99552.88;;;8.96;100.00
8416;BME280;4245;42.120;24.732;2023-04-08T01:57:48;99566.91;;;8.98;100.00
8416;BME280;4245;42.120;24.732;2023-04-08T02:00:19;99562.75;;;9.08;100.00
8416;BME280;4245;42.120;24.732;2023-04-08T02:02:48;99569.00;;;9.07;100.00
8416;BME280;4245;42.120;24.732;2023-04-08T02:05:16;99573.44;;;9.06;100.00
8416;BME280;4245;42.120;24.732;2023-04-08T02:07:43;99568.34;;;9.03;100.00
8416;BME280;4245;42.120;24.732;2023-04-08T02:10:11;99569.84;;;9.07;100.00
8416;BME280;4245;42.120;24.732;2023-04-08T02:12:38;99563.41;;;8.97;100.00
8416;BME280;4245;42.120;24.732;2023-04-08T02:15:06;99564.63;;;9.06;100.00
8416;BME280;4245;42.120;24.732;2023-04-08T02:17:37;99563.88;;;8.90;100.00
8416;BME280;4245;42.120;24.732;2023-04-08T02:20:10;99562.72;;;8.94;100.00
8416;BME280;4245;42.120;24.732;2023-04-08T02:22:42;99570.47;;;8.97;100.00
8416;BME280;4245;42.120;24.732;2023-04-08T02:25:13;99578.63;;;8.94;100.00
8416;BME280;4245;42.120;24.732;2023-04-08T02:27:41;99581.41;;;9.06;100.00
8416;BME280;4245;42.120;24.732;2023-04-08T02:30:11;99576.84;;;8.94;100.00
8416;BME280;4245;42.120;24.732;2023-04-08T02:32:39;99570.75;;;8.92;100.00
8416;BME280;4245;42.120;24.732;2023-04-08T02:35:08;99570.09;;;8.89;100.00
8416;BME280;4245;42.120;24.732;2023-04-08T02:37:37;99574.34;;;8.91;100.00
8416;BME280;4245;42.120;24.732;2023-04-08T02:40:21;99570.00;;;8.90;100.00
8416;BME280;4245;42.120;24.732;2023-04-08T02:42:48;99570.84;;;8.91;100.00
8416;BME280;4245;42.120;24.732;2023-04-08T02:45:16;99574.88;;;8.82;100.00
8416;BME280;4245;42.120;24.732;2023-04-08T02:47:43;99569.97;;;8.76;100.00
8416;BME280;4245;42.120;24.732;2023-04-08T02:50:11;99569.78;;;8.79;100.00
8416;BME280;4245;42.120;24.732;2023-04-08T02:52:38;99568.56;;;8.85;100.00
8416;BME280;4245;42.120;24.732;2023-04-08T02:55:06;99577.38;;;8.85;100.00
8416;BME280;4245;42.120;24.732;2023-04-08T02:57:34;99584.81;;;8.79;100.00
8416;BME280;4245;42.120;24.732;2023-04-08T03:00:02;99589.06;;;8.81;100.00
8416;BME280;4245;42.120;24.732;2023-04-08T03:02:29;99594.47;;;8.80;100.00
8416;BME280;4245;42.120;24.732;2023-04-08T03:04:56;99589.44;;;8.75;100.00
8416;BME280;4245;42.120;24.732;2023-04-08T03:07:25;99594.91;;;8.72;100.00
8416;BME280;4245;42.120;24.732;2023-04-08T03:09:53;99596.06;;;8.82;100.00
8416;BME280;4245;42.120;24.732;2023-04-08T03:12:20;99603.63;;;8.74;100.00
8416;BME280;4245;42.120;24.732;2023-04-08T03:14:47;99593.22;;;8.71;100.00
8416;BME280;4245;42.120;24.732;2023-04-08T03:17:15;99598.31;;;8.74;100.00
8416;BME280;4245;42.120;24.732;2023-04-08T03:19:42;99593.03;;;8.74;100.00
8416;BME280;4245;42.120;24.732;2023-04-08T03:22:09;99610.72;;;8.73;100.00
8416;BME280;4245;42.120;24.732;2023-04-08T03:24:37;99598.31;;;8.74;100.00
8416;BME280;4245;42.120;24.732;2023-04-08T03:27:04;99602.94;;;8.70;100.00
8416;BME280;4245;42.120;24.732;2023-04-08T03:29:32;99588.25;;;8.65;100.00
8416;BME280;4245;42.120;24.732;2023-04-08T03:31:59;99591.31;;;8.57;100.00
8416;BME280;4245;42.120;24.732;2023-04-08T03:34:26;99598.34;;;8.58;100.00
8416;BME280;4245;42.120;24.732;2023-04-08T03:36:53;99597.66;;;8.55;100.00
8416;BME280;4245;42.120;24.732;2023-04-08T03:39:20;99600.50;;;8.52;100.00
8416;BME280;4245;42.120;24.732;2023-04-08T03:41:48;99595.97;;;8.54;100.00
8416;BME280;4245;42.120;24.732;2023-04-08T03:44:15;99596.56;;;8.59;100.00
8416;BME280;4245;42.120;24.732;2023-04-08T03:46:42;99601.06;;;8.57;100.00
8416;BME280;4245;42.120;24.732;2023-04-08T03:49:09;99598.69;;;8.52;100.00
8416;BME280;4245;42.120;24.732;2023-04-08T03:51:36;99605.69;;;8.53;100.00
8416;BME280;4245;42.120;24.732;2023-04-08T03:54:03;99611.84;;;8.54;100.00
8416;BME280;4245;42.120;24.732;2023-04-08T03:56:30;99614.69;;;8.51;100.00
8416;BME280;4245;42.120;24.732;2023-04-08T03:58:59;99618.84;;;8.55;100.00
8416;BME280;4245;42.120;24.732;2023-04-08T04:01:26;99613.56;;;8.55;100.00
8416;BME280;4245;42.120;24.732;2023-04-08T04:03:55;99611.56;;;8.58;100.00
8416;BME280;4245;42.120;24.732;2023-04-08T04:06:22;99616.19;;;8.55;100.00
8416;BME280;4245;42.120;24.732;2023-04-08T04:08:52;99612.03;;;8.51;100.00
8416;BME280;4245;42.120;24.732;2023-04-08T04:11:19;99615.69;;;8.48;100.00
8416;BME280;4245;42.120;24.732;2023-04-08T04:13:47;99616.28;;;8.53;100.00
8416;BME280;4245;42.120;24.732;2023-04-08T04:16:15;99623.22;;;8.56;100.00
8416;BME280;4245;42.120;24.732;2023-04-08T04:18:42;99624.81;;;8.58;100.00
8416;BME280;4245;42.120;24.732;2023-04-08T04:21:09;99625.88;;;8.56;100.00
8416;BME280;4245;42.120;24.732;2023-04-08T04:23:36;99625.69;;;8.59;100.00
8416;BME280;4245;42.120;24.732;2023-04-08T04:26:07;99634.53;;;8.73;100.00
8416;BME280;4245;42.120;24.732;2023-04-08T04:28:34;99628.72;;;8.67;100.00
8416;BME280;4245;42.120;24.732;2023-04-08T04:31:01;99619.25;;;8.79;100.00
8416;BME280;4245;42.120;24.732;2023-04-08T04:33:30;99619.31;;;8.77;100.00
8416;BME280;4245;42.120;24.732;2023-04-08T04:35:57;99613.69;;;8.67;100.00
8416;BME280;4245;42.120;24.732;2023-04-08T04:38:24;99618.84;;;8.70;100.00
8416;BME280;4245;42.120;24.732;2023-04-08T04:40:51;99621.81;;;8.80;100.00
8416;BME280;4245;42.120;24.732;2023-04-08T04:43:20;99622.66;;;8.81;100.00
8416;BME280;4245;42.120;24.732;2023-04-08T04:45:46;99624.34;;;8.97;100.00
8416;BME280;4245;42.120;24.732;2023-04-08T04:48:13;99625.97;;;9.00;100.00
8416;BME280;4245;42.120;24.732;2023-04-08T04:50:42;99630.03;;;9.05;100.00
8416;BME280;4245;42.120;24.732;2023-04-08T04:53:09;99628.06;;;9.09;100.00
8416;BME280;4245;42.120;24.732;2023-04-08T04:55:35;99634.13;;;9.11;100.00
8416;BME280;4245;42.120;24.732;2023-04-08T04:58:02;99631.59;;;9.09;100.00
8416;BME280;4245;42.120;24.732;2023-04-08T05:00:29;99629.41;;;9.16;100.00
8416;BME280;4245;42.120;24.732;2023-04-08T05:02:56;99630.56;;;9.26;100.00
8416;BME280;4245;42.120;24.732;2023-04-08T05:05:23;99632.22;;;9.29;100.00
8416;BME280;4245;42.120;24.732;2023-04-08T05:07:51;99632.00;;;9.32;100.00
8416;BME280;4245;42.120;24.732;2023-04-08T05:10:18;99636.19;;;9.36;100.00
8416;BME280;4245;42.120;24.732;2023-04-08T05:12:45;99642.91;;;9.41;100.00
8416;BME280;4245;42.120;24.732;2023-04-08T05:15:12;99644.09;;;9.51;100.00
8416;BME280;4245;42.120;24.732;2023-04-08T05:17:40;99653.47;;;9.57;100.00
8416;BME280;4245;42.120;24.732;2023-04-08T05:20:07;99654.63;;;9.67;100.00
8416;BME280;4245;42.120;24.732;2023-04-08T05:22:34;99662.56;;;9.53;100.00
8416;BME280;4245;42.120;24.732;2023-04-08T05:25:03;99653.53;;;9.41;100.00
8416;BME280;4245;42.120;24.732;2023-04-08T05:27:30;99648.81;;;9.46;100.00
8416;BME280;4245;42.120;24.732;2023-04-08T05:29:57;99651.47;;;9.60;100.00
8416;BME280;4245;42.120;24.732;2023-04-08T05:32:24;99653.75;;;9.52;100.00
8416;BME280;4245;42.120;24.732;2023-04-08T05:34:51;99662.59;;;9.81;100.00
8416;BME280;4245;42.120;24.732;2023-04-08T05:37:18;99662.41;;;9.84;100.00
8416;BME280;4245;42.120;24.732;2023-04-08T05:39:45;99661.09;;;9.91;100.00
8416;BME280;4245;42.120;24.732;2023-04-08T05:42:14;99664.03;;;10.01;100.00
8416;BME280;4245;42.120;24.732;2023-04-08T05:44:40;99664.78;;;10.03;100.00
8416;BME280;4245;42.120;24.732;2023-04-08T05:47:08;99667.53;;;9.87;100.00
8416;BME280;4245;42.120;24.732;2023-04-08T05:49:35;99660.41;;;9.88;100.00
8416;BME280;4245;42.120;24.732;2023-04-08T05:52:02;99678.81;;;10.05;100.00
8416;BME280;4245;42.120;24.732;2023-04-08T05:54:29;99672.41;;;10.23;100.00
8416;BME280;4245;42.120;24.732;2023-04-08T05:56:56;99675.31;;;10.33;100.00
8416;BME280;4245;42.120;24.732;2023-04-08T05:59:24;99664.81;;;10.45;100.00
8416;BME280;4245;42.120;24.732;2023-04-08T06:01:51;99666.38;;;10.62;100.00
8416;BME280;4245;42.120;24.732;2023-04-08T06:04:19;99668.69;;;10.81;100.00
8416;BME280;4245;42.120;24.732;2023-04-08T06:06:46;99666.88;;;10.81;100.00
8416;BME280;4245;42.120;24.732;2023-04-08T06:09:13;99666.97;;;10.80;100.00
8416;BME280;4245;42.120;24.732;2023-04-08T06:11:40;99661.69;;;11.07;100.00
8416;BME280;4245;42.120;24.732;2023-04-08T06:14:07;99660.59;;;11.09;100.00
8416;BME280;4245;42.120;24.732;2023-04-08T06:16:35;99663.41;;;11.20;100.00
8416;BME280;4245;42.120;24.732;2023-04-08T06:19:02;99674.38;;;11.28;100.00
8416;BME280;4245;42.120;24.732;2023-04-08T06:21:29;99666.88;;;11.48;100.00
8416;BME280;4245;42.120;24.732;2023-04-08T06:23:56;99670.69;;;11.44;100.00
8416;BME280;4245;42.120;24.732;2023-04-08T06:26:23;99672.41;;;11.45;100.00
8416;BME280;4245;42.120;24.732;2023-04-08T06:28:50;99671.75;;;11.81;100.00
8416;BME280;4245;42.120;24.732;2023-04-08T06:31:17;99672.19;;;12.00;100.00
8416;BME280;4245;42.120;24.732;2023-04-08T06:33:46;99666.00;;;12.12;100.00
8416;BME280;4245;42.120;24.732;2023-04-08T06:36:13;99664.09;;;12.63;100.00
8416;BME280;4245;42.120;24.732;2023-04-08T06:38:40;99666.03;;;13.08;94.02
8416;BME280;4245;42.120;24.732;2023-04-08T06:41:07;99669.66;;;13.07;90.68
8416;BME280;4245;42.120;24.732;2023-04-08T06:43:34;99674.41;;;13.28;89.75
8416;BME280;4245;42.120;24.732;2023-04-08T06:46:02;99671.78;;;13.39;86.46
8416;BME280;4245;42.120;24.732;2023-04-08T06:48:29;99674.50;;;13.50;84.75
8416;BME280;4245;42.120;24.732;2023-04-08T06:50:58;99669.84;;;13.41;85.58
8416;BME280;4245;42.120;24.732;2023-04-08T06:53:26;99669.03;;;13.40;86.50
8416;BME280;4245;42.120;24.732;2023-04-08T06:55:54;99661.06;;;13.63;84.11
8416;BME280;4245;42.120;24.732;2023-04-08T06:58:21;99669.13;;;13.74;83.01
8416;BME280;4245;42.120;24.732;2023-04-08T07:00:48;99668.13;;;13.75;83.36
8416;BME280;4245;42.120;24.732;2023-04-08T07:03:15;99672.81;;;14.06;80.71
8416;BME280;4245;42.120;24.732;2023-04-08T07:05:42;99670.03;;;14.08;79.66
8416;BME280;4245;42.120;24.732;2023-04-08T07:08:10;99659.09;;;14.44;75.85
8416;BME280;4245;42.120;24.732;2023-04-08T07:10:37;99670.50;;;14.35;75.93
8416;BME280;4245;42.120;24.732;2023-04-08T07:13:04;99672.31;;;14.68;74.51
8416;BME280;4245;42.120;24.732;2023-04-08T07:15:31;99670.59;;;14.89;73.99
8416;BME280;4245;42.120;24.732;2023-04-08T07:17:58;99675.19;;;15.30;71.57
8416;BME280;4245;42.120;24.732;2023-04-08T07:20:25;99675.97;;;15.21;70.97
8416;BME280;4245;42.120;24.732;2023-04-08T07:22:52;99675.53;;;15.37;69.67
8416;BME280;4245;42.120;24.732;2023-04-08T07:25:20;99678.88;;;15.29;68.09
8416;BME280;4245;42.120;24.732;2023-04-08T07:27:47;99679.81;;;14.96;69.16
8416;BME280;4245;42.120;24.732;2023-04-08T07:30:14;99684.34;;;15.59;67.41
8416;BME280;4245;42.120;24.732;2023-04-08T07:32:41;99682.31;;;16.44;63.64
8416;BME280;4245;42.120;24.732;2023-04-08T07:35:08;99677.00;;;16.54;62.29
8416;BME280;4245;42.120;24.732;2023-04-08T07:37:35;99682.47;;;16.73;60.88
8416;BME280;4245;42.120;24.732;2023-04-08T07:40:02;99677.13;;;16.92;60.78
8416;BME280;4245;42.120;24.732;2023-04-08T07:42:31;99675.63;;;17.28;56.90
8416;BME280;4245;42.120;24.732;2023-04-08T07:44:58;99680.84;;;17.20;58.35
8416;BME280;4245;42.120;24.732;2023-04-08T07:47:25;99679.47;;;17.35;56.93
8416;BME280;4245;42.120;24.732;2023-04-08T07:49:52;99678.91;;;17.32;55.61
8416;BME280;4245;42.120;24.732;2023-04-08T07:52:19;99678.84;;;16.93;57.96
8416;BME280;4245;42.120;24.732;2023-04-08T07:54:45;99682.13;;;17.07;58.54
8416;BME280;4245;42.120;24.732;2023-04-08T07:57:12;99683.09;;;17.15;57.56
8416;BME280;4245;42.120;24.732;2023-04-08T07:59:41;99680.44;;;17.54;54.81
8416;BME280;4245;42.120;24.732;2023-04-08T08:02:08;99683.16;;;17.63;54.64
8416;BME280;4245;42.120;24.732;2023-04-08T08:04:35;99682.00;;;17.47;54.45
8416;BME280;4245;42.120;24.732;2023-04-08T08:07:02;99687.66;;;17.44;54.53
8416;BME280;4245;42.120;24.732;2023-04-08T08:09:29;99687.69;;;17.63;54.40
8416;BME280;4245;42.120;24.732;2023-04-08T08:11:56;99686.66;;;17.54;54.29
8416;BME280;4245;42.120;24.732;2023-04-08T08:14:23;99687.25;;;17.77;54.44
8416;BME280;4245;42.120;24.732;2023-04-08T08:16:52;99687.91;;;18.08;53.74
8416;BME280;4245;42.120;24.732;2023-04-08T08:19:20;99697.09;;;18.15;51.88
8416;BME280;4245;42.120;24.732;2023-04-08T08:21:46;99691.34;;;17.81;52.63
8416;BME280;4245;42.120;24.732;2023-04-08T08:24:14;99691.06;;;17.74;54.94
8416;BME280;4245;42.120;24.732;2023-04-08T08:26:42;99684.91;;;18.11;53.37
8416;BME280;4245;42.120;24.732;2023-04-08T08:29:11;99684.25;;;17.99;54.70
8416;BME280;4245;42.120;24.732;2023-04-08T08:31:38;99683.41;;;17.89;54.15
8416;BME280;4245;42.120;24.732;2023-04-08T08:34:06;99680.56;;;18.10;54.10
8416;BME280;4245;42.120;24.732;2023-04-08T08:36:33;99689.75;;;18.63;50.90
8416;BME280;4245;42.120;24.732;2023-04-08T08:39:00;99681.78;;;19.17;49.53
8416;BME280;4245;42.120;24.732;2023-04-08T08:41:32;99678.09;;;19.71;48.52
8416;BME280;4245;42.120;24.732;2023-04-08T08:43:59;99668.94;;;20.07;46.19
8416;BME280;4245;42.120;24.732;2023-04-08T08:46:27;99681.00;;;20.21;45.78
8416;BME280;4245;42.120;24.732;2023-04-08T08:48:54;99675.38;;;20.14;45.30
8416;BME280;4245;42.120;24.732;2023-04-08T08:51:23;99666.91;;;20.09;44.60
8416;BME280;4245;42.120;24.732;2023-04-08T08:53:52;99663.53;;;19.81;45.84
8416;BME280;4245;42.120;24.732;2023-04-08T08:56:19;99666.75;;;19.14;47.88
8416;BME280;4245;42.120;24.732;2023-04-08T08:58:46;99672.97;;;18.33;49.37
8416;BME280;4245;42.120;24.732;2023-04-08T09:01:29;99667.25;;;18.08;50.16
8416;BME280;4245;42.120;24.732;2023-04-08T09:04:07;99671.25;;;17.95;51.17
8416;BME280;4245;42.120;24.732;2023-04-08T09:06:36;99664.75;;;17.78;51.58
8416;BME280;4245;42.120;24.732;2023-04-08T09:09:03;99664.88;;;17.57;53.82
8416;BME280;4245;42.120;24.732;2023-04-08T09:11:35;99662.38;;;17.75;53.18
8416;BME280;4245;42.120;24.732;2023-04-08T09:14:03;99673.38;;;17.81;52.19
8416;BME280;4245;42.120;24.732;2023-04-08T09:16:31;99667.63;;;17.67;53.30
8416;BME280;4245;42.120;24.732;2023-04-08T09:19:08;99671.97;;;17.77;51.71
8416;BME280;4245;42.120;24.732;2023-04-08T09:21:37;99664.91;;;17.86;51.02
8416;BME280;4245;42.120;24.732;2023-04-08T09:24:06;99657.69;;;17.77;51.85
8416;BME280;4245;42.120;24.732;2023-04-08T09:26:34;99660.78;;;17.82;52.03
8416;BME280;4245;42.120;24.732;2023-04-08T09:29:04;99667.97;;;17.91;51.35
8416;BME280;4245;42.120;24.732;2023-04-08T09:31:32;99656.97;;;17.56;52.12
8416;BME280;4245;42.120;24.732;2023-04-08T09:34:09;99653.03;;;17.31;53.24
8416;BME280;4245;42.120;24.732;2023-04-08T09:36:37;99663.13;;;16.79;53.87
8416;BME280;4245;42.120;24.732;2023-04-08T09:39:05;99657.84;;;17.18;53.94
8416;BME280;4245;42.120;24.732;2023-04-08T09:41:33;99660.34;;;17.58;52.85
8416;BME280;4245;42.120;24.732;2023-04-08T09:44:02;99669.34;;;18.14;50.95
8416;BME280;4245;42.120;24.732;2023-04-08T09:46:35;99666.97;;;18.58;48.45
8416;BME280;4245;42.120;24.732;2023-04-08T09:49:06;99667.28;;;19.00;46.38
8416;BME280;4245;42.120;24.732;2023-04-08T09:51:39;99664.50;;;18.92;45.31
8416;BME280;4245;42.120;24.732;2023-04-08T09:54:11;99665.94;;;18.59;46.40
8416;BME280;4245;42.120;24.732;2023-04-08T09:56:43;99662.38;;;18.68;46.51
8416;BME280;4245;42.120;24.732;2023-04-08T09:59:14;99663.59;;;18.74;46.66
8416;BME280;4245;42.120;24.732;2023-04-08T10:01:46;99663.19;;;18.78;46.29
8416;BME280;4245;42.120;24.732;2023-04-08T10:04:18;99666.47;;;18.25;48.22
8416;BME280;4245;42.120;24.732;2023-04-08T10:06:51;99660.19;;;18.54;47.76
8416;BME280;4245;42.120;24.732;2023-04-08T10:09:20;99660.25;;;18.89;47.50
8416;BME280;4245;42.120;24.732;2023-04-08T10:11:48;99657.06;;;19.21;46.08
8416;BME280;4245;42.120;24.732;2023-04-08T10:14:15;99659.75;;;19.39;44.16
8416;BME280;4245;42.120;24.732;2023-04-08T10:16:42;99656.81;;;19.32;44.94
8416;BME280;4245;42.120;24.732;2023-04-08T10:19:37;99651.59;;;19.13;46.29
8416;BME280;4245;42.120;24.732;2023-04-08T10:25:30;99652.34;;;18.60;47.79
8416;BME280;4245;42.120;24.732;2023-04-08T10:27:57;99645.19;;;18.42;49.19
8416;BME280;4245;42.120;24.732;2023-04-08T10:30:41;99638.34;;;18.57;48.70
8416;BME280;4245;42.120;24.732;2023-04-08T10:33:12;99642.34;;;18.43;49.81
8416;BME280;4245;42.120;24.732;2023-04-08T10:35:42;99637.81;;;18.53;48.49
8416;BME280;4245;42.120;24.732;2023-04-08T10:38:11;99638.59;;;18.27;49.65
8416;BME280;4245;42.120;24.732;2023-04-08T10:40:41;99635.25;;;18.79;49.17
8416;BME280;4245;42.120;24.732;2023-04-08T10:43:09;99625.47;;;19.84;47.01
8416;BME280;4245;42.120;24.732;2023-04-08T10:45:36;99628.88;;;20.88;43.81
8416;BME280;4245;42.120;24.732;2023-04-08T10:48:18;99616.56;;;21.02;42.50
8416;BME280;4245;42.120;24.732;2023-04-08T10:50:51;99623.84;;;20.25;43.88
8416;BME280;4245;42.120;24.732;2023-04-08T10:53:26;99615.97;;;19.37;46.87
8416;BME280;4245;42.120;24.732;2023-04-08T10:56:02;99616.44;;;19.32;47.20
8416;BME280;4245;42.120;24.732;2023-04-08T10:58:30;99609.34;;;18.96;47.84
8416;BME280;4245;42.120;24.732;2023-04-08T11:01:02;99606.13;;;18.92;48.10
8416;BME280;4245;42.120;24.732;2023-04-08T11:03:31;99603.34;;;19.20;47.71
8416;BME280;4245;42.120;24.732;2023-04-08T11:05:59;99602.56;;;19.27;47.00
8416;BME280;4245;42.120;24.732;2023-04-08T11:08:27;99601.81;;;19.35;46.75
8416;BME280;4245;42.120;24.732;2023-04-08T11:10:57;99601.09;;;19.33;46.68
8416;BME280;4245;42.120;24.732;2023-04-08T11:13:25;99603.41;;;19.28;47.06
8416;BME280;4245;42.120;24.732;2023-04-08T11:15:53;99595.53;;;19.44;46.61
8416;BME280;4245;42.120;24.732;2023-04-08T11:18:21;99596.56;;;18.98;46.56
8416;BME280;4245;42.120;24.732;2023-04-08T11:20:50;99601.75;;;18.64;47.12
8416;BME280;4245;42.120;24.732;2023-04-08T11:23:17;99599.00;;;18.19;48.14
8416;BME280;4245;42.120;24.732;2023-04-08T11:25:45;99588.44;;;18.08;49.48
8416;BME280;4245;42.120;24.732;2023-04-08T11:28:14;99579.16;;;18.57;48.12
8416;BME280;4245;42.120;24.732;2023-04-08T11:30:41;99573.72;;;18.84;47.29
8416;BME280;4245;42.120;24.732;2023-04-08T11:33:09;99569.03;;;18.69;47.51
8416;BME280;4245;42.120;24.732;2023-04-08T11:35:39;99571.66;;;18.96;46.03
8416;BME280;4245;42.120;24.732;2023-04-08T11:38:07;99566.34;;;18.69;47.28
8416;BME280;4245;42.120;24.732;2023-04-08T11:40:34;99565.19;;;18.89;46.89
8416;BME280;4245;42.120;24.732;2023-04-08T11:43:08;99557.66;;;19.10;45.87
8416;BME280;4245;42.120;24.732;2023-04-08T11:45:39;99551.53;;;18.82;46.83
8416;BME280;4245;42.120;24.732;2023-04-08T11:48:09;99546.44;;;18.97;46.16
8416;BME280;4245;42.120;24.732;2023-04-08T11:50:36;99541.19;;;18.60;47.79
8416;BME280;4245;42.120;24.732;2023-04-08T11:53:03;99544.81;;;18.69;48.05
8416;BME280;4245;42.120;24.732;2023-04-08T11:55:31;99541.91;;;18.97;46.95
8416;BME280;4245;42.120;24.732;2023-04-08T11:58:02;99540.72;;;18.64;48.29
8416;BME280;4245;42.120;24.732;2023-04-08T12:00:29;99533.13;;;18.50;48.88
8416;BME280;4245;42.120;24.732;2023-04-08T12:02:59;99530.06;;;18.73;48.53
8416;BME280;4245;42.120;24.732;2023-04-08T12:05:26;99535.78;;;19.13;47.78
8416;BME280;4245;42.120;24.732;2023-04-08T12:07:52;99539.31;;;19.49;46.36
8416;BME280;4245;42.120;24.732;2023-04-08T12:10:20;99541.88;;;19.50;46.68
8416;BME280;4245;42.120;24.732;2023-04-08T12:12:47;99537.66;;;18.95;47.82
8416;BME280;4245;42.120;24.732;2023-04-08T12:15:14;99521.84;;;18.92;48.20
8416;BME280;4245;42.120;24.732;2023-04-08T12:17:41;99525.88;;;19.14;48.18
8416;BME280;4245;42.120;24.732;2023-04-08T12:20:10;99514.97;;;19.59;47.23
8416;BME280;4245;42.120;24.732;2023-04-08T12:22:37;99508.13;;;19.72;46.76
8416;BME280;4245;42.120;24.732;2023-04-08T12:25:05;99510.63;;;20.00;46.46
8416;BME280;4245;42.120;24.732;2023-04-08T12:27:32;99513.00;;;20.45;45.33
8416;BME280;4245;42.120;24.732;2023-04-08T12:29:59;99507.44;;;20.38;45.56
8416;BME280;4245;42.120;24.732;2023-04-08T12:32:26;99511.91;;;19.87;46.29
8416;BME280;4245;42.120;24.732;2023-04-08T12:34:53;99511.56;;;19.13;48.16
8416;BME280;4245;42.120;24.732;2023-04-08T12:37:22;99507.53;;;18.91;48.96
8416;BME280;4245;42.120;24.732;2023-04-08T12:39:49;99502.03;;;18.83;48.88
8416;BME280;4245;42.120;24.732;2023-04-08T12:42:16;99503.44;;;19.05;48.67
8416;BME280;4245;42.120;24.732;2023-04-08T12:44:43;99500.00;;;18.77;49.24
8416;BME280;4245;42.120;24.732;2023-04-08T12:47:10;99504.22;;;18.80;49.15
8416;BME280;4245;42.120;24.732;2023-04-08T12:49:37;99497.75;;;19.34;48.71
8416;BME280;4245;42.120;24.732;2023-04-08T12:52:04;99489.16;;;19.56;47.21
8416;BME280;4245;42.120;24.732;2023-04-08T12:54:33;99485.66;;;19.56;47.61
8416;BME280;4245;42.120;24.732;2023-04-08T12:57:00;99492.34;;;19.51;47.78
8416;BME280;4245;42.120;24.732;2023-04-08T12:59:27;99495.81;;;19.00;48.73
8416;BME280;4245;42.120;24.732;2023-04-08T13:01:54;99482.97;;;18.94;48.65
8416;BME280;4245;42.120;24.732;2023-04-08T13:04:21;99492.34;;;18.55;49.76
8416;BME280;4245;42.120;24.732;2023-04-08T13:06:48;99481.88;;;18.34;50.24
8416;BME280;4245;42.120;24.732;2023-04-08T13:09:16;99477.69;;;18.22;50.72
8416;BME280;4245;42.120;24.732;2023-04-08T13:11:44;99480.06;;;18.25;51.00
8416;BME280;4245;42.120;24.732;2023-04-08T13:14:11;99475.78;;;18.14;50.58
8416;BME280;4245;42.120;24.732;2023-04-08T13:16:39;99472.94;;;17.61;52.66
8416;BME280;4245;42.120;24.732;2023-04-08T13:19:06;99462.31;;;17.50;53.99
8416;BME280;4245;42.120;24.732;2023-04-08T13:21:33;99462.59;;;17.66;52.79